createdAt,value
2019-04-07T00:00:36.078Z,7.09
2019-04-07T00:01:36.649Z,7.13
2019-04-07T00:02:36.034Z,6.98
2019-04-07T00:03:35.999Z,7.01
2019-04-07T00:04:36.313Z,7.08
2019-04-07T00:05:36.256Z,7.01
2019-04-07T00:06:36.150Z,6.91
2019-04-07T00:07:35.893Z,6.89
2019-04-07T00:08:36.524Z,6.81
2019-04-07T00:09:35.840Z,6.81
2019-04-07T00:10:35.814Z,6.79
2019-04-07T00:11:36.301Z,6.71
2019-04-07T00:12:35.873Z,6.83
2019-04-07T00:13:36.357Z,6.83
2019-04-07T00:14:36.039Z,6.80
2019-04-07T00:15:35.681Z,6.89
2019-04-07T00:16:35.656Z,6.91
2019-04-07T00:17:36.196Z,6.99
2019-04-07T00:18:35.763Z,7.05
2019-04-07T00:19:35.577Z,6.99
2019-04-07T00:20:35.550Z,7.02
2019-04-07T00:21:35.526Z,7.08
2019-04-07T00:22:35.497Z,7.19
2019-04-07T00:23:35.748Z,7.16
2019-04-07T00:24:35.446Z,7.08
2019-04-07T00:25:35.422Z,7.16
2019-04-07T00:26:35.841Z,7.13
2019-04-07T00:27:35.365Z,7.16
2019-04-07T00:28:35.339Z,7.26
2019-04-07T00:29:35.511Z,7.13
2019-04-07T00:30:35.284Z,7.22
2019-04-07T00:31:35.259Z,7.15
2019-04-07T00:32:35.233Z,7.16
2019-04-07T00:33:35.207Z,7.17
2019-04-07T00:34:35.771Z,7.27
2019-04-07T00:35:35.153Z,7.24
2019-04-07T00:36:35.126Z,7.15
2019-04-07T00:37:35.106Z,7.13
2019-04-07T00:38:35.074Z,7.12
2019-04-07T00:39:35.518Z,7.09
2019-04-07T00:40:35.022Z,7.04
2019-04-07T00:41:35.377Z,7.04
2019-04-07T00:42:34.971Z,6.91
2019-04-07T00:43:35.197Z,6.91
2019-04-07T00:44:35.298Z,6.94
2019-04-07T00:45:35.405Z,7.04
2019-04-07T00:46:35.513Z,7.05
2019-04-07T00:47:34.931Z,6.91
2019-04-07T00:48:34.900Z,6.91
2019-04-07T00:49:34.801Z,6.91
2019-04-07T00:50:34.805Z,6.90
2019-04-07T00:51:35.454Z,6.79
2019-04-07T00:52:34.957Z,6.77
2019-04-07T00:53:35.283Z,6.80
2019-04-07T00:54:34.651Z,6.77
2019-04-07T00:55:34.625Z,6.81
2019-04-07T00:56:34.686Z,6.83
2019-04-07T00:57:35.245Z,6.79
2019-04-07T00:58:34.557Z,6.79
2019-04-07T00:59:35.150Z,6.72
2019-04-07T01:00:34.624Z,6.77
2019-04-07T01:01:35.039Z,6.73
2019-04-07T01:02:34.443Z,6.77
2019-04-07T01:03:34.917Z,6.69
2019-04-07T01:04:34.409Z,6.63
2019-04-07T01:05:38.564Z,6.72
2019-04-07T01:06:34.335Z,6.80
2019-04-07T01:07:34.496Z,6.81
2019-04-07T01:08:34.283Z,6.81
2019-04-07T01:09:34.256Z,6.91
2019-04-07T01:10:34.807Z,6.95
2019-04-07T01:11:34.315Z,6.79
2019-04-07T01:12:34.643Z,6.91
2019-04-07T01:13:34.150Z,6.94
2019-04-07T01:14:34.124Z,7.01
2019-04-07T01:15:34.097Z,7.02
2019-04-07T01:16:34.084Z,7.01
2019-04-07T01:17:34.491Z,7.05
2019-04-07T01:18:34.018Z,6.99
2019-04-07T01:19:34.434Z,7.02
2019-04-07T01:20:33.967Z,7.16
2019-04-07T01:21:34.552Z,7.24
2019-04-07T01:22:34.612Z,7.29
2019-04-07T01:23:33.892Z,7.31
2019-04-07T01:24:34.137Z,7.20
2019-04-07T01:25:33.836Z,7.34
2019-04-07T01:26:33.916Z,7.29
2019-04-07T01:27:33.782Z,7.35
2019-04-07T01:28:33.755Z,7.37
2019-04-07T01:29:34.174Z,7.32
2019-04-07T01:30:33.725Z,7.45
2019-04-07T01:31:34.132Z,7.40
2019-04-07T01:32:33.650Z,7.40
2019-04-07T01:33:33.626Z,7.31
2019-04-07T01:34:34.971Z,7.31
2019-04-07T01:35:44.421Z,7.31
2019-04-07T01:36:33.797Z,7.09
2019-04-07T01:37:34.064Z,7.13
2019-04-07T01:38:33.491Z,6.99
2019-04-07T01:39:33.722Z,7.08
2019-04-07T01:40:33.784Z,7.02
2019-04-07T01:41:34.061Z,7.08
2019-04-07T01:42:33.459Z,7.02
2019-04-07T01:43:33.924Z,7.04
2019-04-07T01:44:33.445Z,7.01
2019-04-07T01:45:33.366Z,7.15
2019-04-07T01:46:33.904Z,7.16
2019-04-07T01:47:33.255Z,7.12
2019-04-07T01:48:33.231Z,7.05
2019-04-07T01:49:33.850Z,7.12
2019-04-07T01:50:33.859Z,7.12
2019-04-07T01:51:33.341Z,7.23
2019-04-07T01:52:33.612Z,7.20
2019-04-07T01:53:33.391Z,7.27
2019-04-07T01:54:33.115Z,7.24
2019-04-07T01:55:33.537Z,7.27
2019-04-07T01:56:33.753Z,7.32
2019-04-07T01:57:33.804Z,7.32
2019-04-07T01:58:32.964Z,7.32
2019-04-07T01:59:32.936Z,7.42
2019-04-07T02:00:32.911Z,7.44
2019-04-07T02:01:32.885Z,7.45
2019-04-07T02:02:33.304Z,7.66
2019-04-07T02:03:32.955Z,7.59
2019-04-07T02:04:32.807Z,7.63
2019-04-07T02:05:32.783Z,7.75
2019-04-07T02:06:33.278Z,7.71
2019-04-07T02:07:32.735Z,7.71
2019-04-07T02:08:32.703Z,7.79
2019-04-07T02:09:32.675Z,7.84
2019-04-07T02:10:32.649Z,7.84
2019-04-07T02:11:32.623Z,7.82
2019-04-07T02:12:32.597Z,7.84
2019-04-07T02:13:32.893Z,7.81
2019-04-07T02:14:32.549Z,7.84
2019-04-07T02:15:32.825Z,7.78
2019-04-07T02:16:32.496Z,7.78
2019-04-07T02:17:32.607Z,7.74
2019-04-07T02:18:32.922Z,7.81
2019-04-07T02:19:32.789Z,7.77
2019-04-07T02:20:32.387Z,7.72
2019-04-07T02:21:33.749Z,7.69
2019-04-07T02:22:32.333Z,7.69
2019-04-07T02:23:32.708Z,7.81
2019-04-07T02:24:32.282Z,7.84
2019-04-07T02:25:32.578Z,7.75
2019-04-07T02:26:32.230Z,7.69
2019-04-07T02:27:32.710Z,7.72
2019-04-07T02:28:32.178Z,7.67
2019-04-07T02:29:32.446Z,7.75
2019-04-07T02:30:33.062Z,7.66
2019-04-07T02:31:32.100Z,7.60
2019-04-07T02:32:32.075Z,7.56
2019-04-07T02:33:32.986Z,7.59
2019-04-07T02:34:32.068Z,7.56
2019-04-07T02:35:32.142Z,7.63
2019-04-07T02:36:32.105Z,7.63
2019-04-07T02:37:33.350Z,7.71
2019-04-07T02:38:31.927Z,7.60
2019-04-07T02:39:32.719Z,7.63
2019-04-07T02:40:31.878Z,7.62
2019-04-07T02:41:32.483Z,7.71
2019-04-07T02:42:32.220Z,7.78
2019-04-07T02:43:31.796Z,7.62
2019-04-07T02:44:31.762Z,7.59
2019-04-07T02:45:32.318Z,7.59
2019-04-07T02:46:31.709Z,7.59
2019-04-07T02:47:31.684Z,7.59
2019-04-07T02:48:32.416Z,7.56
2019-04-07T02:49:32.458Z,7.63
2019-04-07T02:50:31.750Z,7.62
2019-04-07T02:51:31.953Z,7.56
2019-04-07T02:52:31.887Z,7.62
2019-04-07T02:53:31.528Z,7.52
2019-04-07T02:54:31.500Z,7.56
2019-04-07T02:55:31.482Z,7.40
2019-04-07T02:56:31.447Z,7.49
2019-04-07T02:57:31.931Z,7.49
2019-04-07T02:58:32.574Z,7.45
2019-04-07T02:59:31.369Z,7.47
2019-04-07T03:00:31.682Z,7.40
2019-04-07T03:01:31.321Z,7.40
2019-04-07T03:02:31.741Z,7.42
2019-04-07T03:03:31.271Z,7.44
2019-04-07T03:04:31.273Z,7.56
2019-04-07T03:05:31.213Z,7.47
2019-04-07T03:06:40.424Z,7.40
2019-04-07T03:07:31.161Z,7.45
2019-04-07T03:08:31.133Z,7.45
2019-04-07T03:09:31.173Z,7.47
2019-04-07T03:10:31.322Z,7.40
2019-04-07T03:11:31.448Z,7.38
2019-04-07T03:12:31.729Z,7.42
2019-04-07T03:13:31.629Z,7.47
2019-04-07T03:14:31.472Z,7.41
2019-04-07T03:15:31.181Z,7.38
2019-04-07T03:16:31.211Z,7.29
2019-04-07T03:17:31.713Z,7.41
2019-04-07T03:18:31.647Z,7.35
2019-04-07T03:19:31.704Z,7.40
2019-04-07T03:20:31.126Z,7.34
2019-04-07T03:21:31.059Z,7.32
2019-04-07T03:22:30.979Z,7.31
2019-04-07T03:23:31.638Z,7.41
2019-04-07T03:24:30.715Z,7.41
2019-04-07T03:25:30.689Z,7.47
2019-04-07T03:26:31.186Z,7.40
2019-04-07T03:27:31.379Z,7.45
2019-04-07T03:28:30.689Z,7.44
2019-04-07T03:29:31.183Z,7.52
2019-04-07T03:30:32.766Z,7.53
2019-04-07T03:31:32.166Z,7.47
2019-04-07T03:32:32.932Z,7.53
2019-04-07T03:33:32.820Z,7.53
2019-04-07T03:34:33.002Z,7.49
2019-04-07T03:35:32.930Z,7.49
2019-04-07T03:36:35.521Z,7.49
2019-04-07T03:37:38.929Z,7.60
2019-04-07T03:38:31.389Z,7.62
2019-04-07T03:39:30.329Z,7.63
2019-04-07T03:40:30.296Z,7.78
2019-04-07T03:41:30.755Z,7.81
2019-04-07T03:42:30.248Z,7.72
2019-04-07T03:43:30.427Z,7.75
2019-04-07T03:44:30.191Z,7.82
2019-04-07T03:45:30.515Z,7.81
2019-04-07T03:46:30.139Z,7.81
2019-04-07T03:47:30.236Z,7.78
2019-04-07T03:48:30.471Z,7.82
2019-04-07T03:49:30.062Z,7.85
2019-04-07T03:50:30.041Z,7.90
2019-04-07T03:51:30.248Z,7.93
2019-04-07T03:52:30.733Z,7.97
2019-04-07T03:53:30.467Z,7.89
2019-04-07T03:54:30.339Z,7.99
2019-04-07T03:55:29.912Z,7.93
2019-04-07T03:56:30.679Z,7.96
2019-04-07T03:57:30.037Z,7.94
2019-04-07T03:58:29.932Z,7.96
2019-04-07T03:59:29.802Z,7.96
2019-04-07T04:00:29.776Z,8.02
2019-04-07T04:01:30.158Z,8.00
2019-04-07T04:02:29.726Z,8.10
2019-04-07T04:03:30.179Z,7.99
2019-04-07T04:04:30.069Z,7.99
2019-04-07T04:05:29.731Z,8.04
2019-04-07T04:06:30.140Z,8.18
2019-04-07T04:07:34.627Z,8.15
2019-04-07T04:08:30.644Z,8.11
2019-04-07T04:09:30.366Z,8.15
2019-04-07T04:10:30.141Z,8.17
2019-04-07T04:11:29.493Z,8.25
2019-04-07T04:12:30.005Z,8.18
2019-04-07T04:13:30.576Z,8.26
2019-04-07T04:14:29.650Z,8.28
2019-04-07T04:15:29.827Z,8.26
2019-04-07T04:16:29.365Z,8.32
2019-04-07T04:17:30.457Z,8.30
2019-04-07T04:18:29.314Z,8.28
2019-04-07T04:19:30.121Z,8.45
2019-04-07T04:20:30.227Z,8.33
2019-04-07T04:21:29.235Z,8.39
2019-04-07T04:22:29.693Z,8.33
2019-04-07T04:23:29.185Z,8.28
2019-04-07T04:24:29.164Z,8.39
2019-04-07T04:25:30.269Z,8.37
2019-04-07T04:26:29.153Z,8.39
2019-04-07T04:27:29.985Z,8.39
2019-04-07T04:28:30.650Z,8.29
2019-04-07T04:29:29.847Z,8.35
2019-04-07T04:30:29.934Z,8.42
2019-04-07T04:31:29.382Z,8.33
2019-04-07T04:32:28.956Z,8.33
2019-04-07T04:33:29.641Z,8.32
2019-04-07T04:34:28.900Z,8.36
2019-04-07T04:35:29.929Z,8.32
2019-04-07T04:36:29.433Z,8.33
2019-04-07T04:37:40.920Z,8.30
2019-04-07T04:38:29.777Z,8.28
2019-04-07T04:39:29.432Z,8.26
2019-04-07T04:40:28.751Z,8.29
2019-04-07T04:41:29.426Z,8.25
2019-04-07T04:42:29.049Z,8.21
2019-04-07T04:43:28.738Z,8.25
2019-04-07T04:44:29.418Z,8.22
2019-04-07T04:45:29.560Z,8.10
2019-04-07T04:46:28.593Z,8.14
2019-04-07T04:47:28.566Z,8.17
2019-04-07T04:48:28.540Z,8.11
2019-04-07T04:49:29.268Z,8.20
2019-04-07T04:50:28.489Z,8.08
2019-04-07T04:51:29.526Z,8.14
2019-04-07T04:52:28.440Z,8.15
2019-04-07T04:53:29.153Z,8.02
2019-04-07T04:54:29.070Z,8.14
2019-04-07T04:55:28.360Z,8.15
2019-04-07T04:56:28.824Z,8.11
2019-04-07T04:57:28.408Z,8.03
2019-04-07T04:58:28.938Z,8.07
2019-04-07T04:59:28.259Z,8.10
2019-04-07T05:00:28.557Z,8.11
2019-04-07T05:01:28.207Z,8.07
2019-04-07T05:02:28.959Z,8.04
2019-04-07T05:03:28.154Z,8.04
2019-04-07T05:04:28.172Z,8.08
2019-04-07T05:05:28.126Z,8.10
2019-04-07T05:06:29.535Z,8.11
2019-04-07T05:07:28.891Z,8.10
2019-04-07T05:08:28.025Z,8.04
2019-04-07T05:09:40.026Z,8.08
2019-04-07T05:10:27.973Z,8.07
2019-04-07T05:11:27.954Z,8.03
2019-04-07T05:12:28.638Z,8.07
2019-04-07T05:13:27.896Z,8.14
2019-04-07T05:14:28.411Z,8.08
2019-04-07T05:15:28.762Z,8.15
2019-04-07T05:16:27.819Z,8.11
2019-04-07T05:17:27.795Z,8.20
2019-04-07T05:18:27.777Z,8.17
2019-04-07T05:19:28.268Z,8.30
2019-04-07T05:20:28.483Z,8.26
2019-04-07T05:21:28.223Z,8.36
2019-04-07T05:22:27.983Z,8.26
2019-04-07T05:23:27.639Z,8.33
2019-04-07T05:24:27.613Z,8.33
2019-04-07T05:25:27.590Z,8.29
2019-04-07T05:26:27.561Z,8.36
2019-04-07T05:27:27.690Z,8.42
2019-04-07T05:28:27.747Z,8.47
2019-04-07T05:29:27.485Z,8.45
2019-04-07T05:30:28.208Z,8.47
2019-04-07T05:31:27.433Z,8.48
2019-04-07T05:32:27.408Z,8.44
2019-04-07T05:33:27.808Z,8.53
2019-04-07T05:34:27.930Z,8.55
2019-04-07T05:35:27.564Z,8.51
2019-04-07T05:36:27.732Z,8.62
2019-04-07T05:37:27.281Z,8.65
2019-04-07T05:38:27.256Z,8.58
2019-04-07T05:39:27.306Z,8.53
2019-04-07T05:40:27.776Z,8.48
2019-04-07T05:41:27.231Z,8.51
2019-04-07T05:42:27.740Z,8.55
2019-04-07T05:43:27.372Z,8.53
2019-04-07T05:44:27.802Z,8.51
2019-04-07T05:45:27.099Z,8.47
2019-04-07T05:46:28.326Z,8.45
2019-04-07T05:47:27.528Z,8.54
2019-04-07T05:48:27.001Z,8.57
2019-04-07T05:49:27.155Z,8.55
2019-04-07T05:50:28.694Z,8.57
2019-04-07T05:51:29.915Z,8.57
2019-04-07T05:52:27.263Z,8.53
2019-04-07T05:53:28.652Z,8.60
2019-04-07T05:54:27.483Z,8.60
2019-04-07T05:55:27.132Z,8.60
2019-04-07T05:56:28.363Z,8.65
2019-04-07T05:57:30.803Z,8.65
2019-04-07T05:58:26.871Z,8.72
2019-04-07T05:59:26.719Z,8.71
2019-04-07T06:00:26.693Z,8.78
2019-04-07T06:01:26.775Z,8.76
2019-04-07T06:02:27.401Z,8.72
2019-04-07T06:03:26.617Z,8.75
2019-04-07T06:04:27.071Z,8.76
2019-04-07T06:05:26.567Z,8.84
2019-04-07T06:06:26.913Z,8.78
2019-04-07T06:07:30.245Z,8.83
2019-04-07T06:08:32.541Z,8.86
2019-04-07T06:09:26.518Z,8.88
2019-04-07T06:10:28.739Z,8.88
2019-04-07T06:11:28.867Z,8.96
2019-04-07T06:12:26.391Z,9.02
2019-04-07T06:13:26.365Z,9.09
2019-04-07T06:14:26.823Z,9.04
2019-04-07T06:15:26.317Z,9.13
2019-04-07T06:16:26.754Z,9.15
2019-04-07T06:17:27.440Z,9.18
2019-04-07T06:18:26.240Z,9.27
2019-04-07T06:19:26.216Z,9.25
2019-04-07T06:20:26.288Z,9.21
2019-04-07T06:21:26.222Z,9.27
2019-04-07T06:22:26.138Z,9.42
2019-04-07T06:23:29.481Z,9.45
2019-04-07T06:24:26.885Z,9.50
2019-04-07T06:25:27.228Z,9.57
2019-04-07T06:26:26.516Z,9.58
2019-04-07T06:27:26.023Z,9.64
2019-04-07T06:28:26.776Z,9.75
2019-04-07T06:29:26.500Z,9.82
2019-04-07T06:30:28.110Z,9.79
2019-04-07T06:31:26.978Z,9.83
2019-04-07T06:32:26.695Z,9.93
2019-04-07T06:33:26.431Z,9.88
2019-04-07T06:34:26.526Z,9.79
2019-04-07T06:35:26.067Z,9.83
2019-04-07T06:36:26.822Z,9.94
2019-04-07T06:37:29.166Z,9.93
2019-04-07T06:38:33.614Z,9.91
2019-04-07T06:39:25.734Z,10.00
2019-04-07T06:40:25.693Z,10.06
2019-04-07T06:41:30.065Z,10.10
2019-04-07T06:42:25.646Z,10.00
2019-04-07T06:43:25.815Z,9.97
2019-04-07T06:44:25.598Z,9.91
2019-04-07T06:45:25.568Z,10.01
2019-04-07T06:46:28.466Z,9.86
2019-04-07T06:47:25.966Z,10.01
2019-04-07T06:48:25.558Z,10.03
2019-04-07T06:49:27.836Z,10.01
2019-04-07T06:50:25.863Z,10.12
2019-04-07T06:51:29.184Z,10.06
2019-04-07T06:52:25.880Z,10.17
2019-04-07T06:53:25.860Z,10.25
2019-04-07T06:54:25.456Z,10.28
2019-04-07T06:55:27.655Z,10.36
2019-04-07T06:56:26.006Z,10.39
2019-04-07T06:57:25.479Z,10.34
2019-04-07T06:58:25.337Z,10.40
2019-04-07T06:59:27.516Z,10.42
2019-04-07T07:00:25.845Z,10.52
2019-04-07T07:01:26.455Z,10.46
2019-04-07T07:02:27.005Z,10.44
2019-04-07T07:03:25.258Z,10.53
2019-04-07T07:04:25.396Z,10.46
2019-04-07T07:05:25.095Z,10.46
2019-04-07T07:06:25.206Z,10.51
2019-04-07T07:07:25.089Z,10.46
2019-04-07T07:08:25.685Z,10.52
2019-04-07T07:09:27.146Z,10.43
2019-04-07T07:10:29.056Z,10.43
2019-04-07T07:11:29.238Z,10.53
2019-04-07T07:12:31.667Z,10.52
2019-04-07T07:13:29.249Z,10.52
2019-04-07T07:14:34.784Z,10.52
2019-04-07T07:15:25.569Z,10.52
2019-04-07T07:16:28.658Z,10.52
2019-04-07T07:17:24.788Z,10.42
2019-04-07T07:18:24.770Z,10.51
2019-04-07T07:19:27.376Z,10.52
2019-04-07T07:20:27.601Z,10.53
2019-04-07T07:21:24.756Z,10.56
2019-04-07T07:22:24.662Z,10.68
2019-04-07T07:23:25.230Z,10.53
2019-04-07T07:24:25.690Z,10.60
2019-04-07T07:25:26.604Z,10.51
2019-04-07T07:26:24.564Z,10.47
2019-04-07T07:27:25.114Z,10.62
2019-04-07T07:28:24.515Z,10.68
2019-04-07T07:29:26.597Z,10.74
2019-04-07T07:30:24.987Z,10.78
2019-04-07T07:31:25.564Z,10.74
2019-04-07T07:32:24.417Z,10.73
2019-04-07T07:33:25.143Z,10.78
2019-04-07T07:34:24.371Z,10.92
2019-04-07T07:35:24.419Z,10.78
2019-04-07T07:36:24.321Z,10.86
2019-04-07T07:37:25.371Z,10.73
2019-04-07T07:38:24.641Z,10.70
2019-04-07T07:39:25.053Z,10.86
2019-04-07T07:40:24.255Z,10.78
2019-04-07T07:41:24.518Z,10.89
2019-04-07T07:42:24.508Z,10.78
2019-04-07T07:43:24.161Z,10.98
2019-04-07T07:44:24.608Z,11.01
2019-04-07T07:45:24.099Z,11.13
2019-04-07T07:46:24.074Z,11.14
2019-04-07T07:47:24.058Z,11.27
2019-04-07T07:48:27.047Z,11.13
2019-04-07T07:49:24.712Z,11.13
2019-04-07T07:50:24.524Z,11.03
2019-04-07T07:51:24.723Z,10.91
2019-04-07T07:52:24.285Z,10.88
2019-04-07T07:53:27.271Z,10.89
2019-04-07T07:54:27.833Z,11.02
2019-04-07T07:55:23.854Z,11.02
2019-04-07T07:56:24.349Z,11.13
2019-04-07T07:57:24.874Z,11.09
2019-04-07T07:58:27.929Z,10.98
2019-04-07T07:59:24.116Z,11.11
2019-04-07T08:00:24.517Z,11.07
2019-04-07T08:01:23.708Z,11.10
2019-04-07T08:02:23.795Z,11.17
2019-04-07T08:03:23.941Z,11.11
2019-04-07T08:04:26.408Z,11.02
2019-04-07T08:05:23.924Z,11.21
2019-04-07T08:06:24.037Z,11.20
2019-04-07T08:07:23.670Z,11.24
2019-04-07T08:08:23.539Z,11.25
2019-04-07T08:09:25.781Z,11.14
2019-04-07T08:10:25.372Z,11.11
2019-04-07T08:11:24.031Z,11.17
2019-04-07T08:12:23.811Z,11.35
2019-04-07T08:13:23.549Z,11.49
2019-04-07T08:14:23.391Z,11.47
2019-04-07T08:15:26.238Z,11.52
2019-04-07T08:16:23.843Z,11.54
2019-04-07T08:17:23.838Z,11.57
2019-04-07T08:18:23.765Z,11.29
2019-04-07T08:19:26.366Z,11.29
2019-04-07T08:20:23.249Z,11.34
2019-04-07T08:21:23.561Z,11.44
2019-04-07T08:22:29.957Z,11.56
2019-04-07T08:23:23.738Z,11.53
2019-04-07T08:24:23.288Z,11.56
2019-04-07T08:25:24.750Z,11.36
2019-04-07T08:26:25.111Z,11.47
2019-04-07T08:27:23.954Z,11.44
2019-04-07T08:28:23.110Z,11.46
2019-04-07T08:29:23.035Z,11.44
2019-04-07T08:30:23.011Z,11.36
2019-04-07T08:31:22.993Z,11.31
2019-04-07T08:32:26.441Z,11.64
2019-04-07T08:33:23.691Z,11.77
2019-04-07T08:34:23.195Z,11.87
2019-04-07T08:35:23.294Z,12.08
2019-04-07T08:36:23.842Z,12.06
2019-04-07T08:37:23.344Z,12.08
2019-04-07T08:38:26.509Z,11.99
2019-04-07T08:39:26.669Z,12.16
2019-04-07T08:40:22.777Z,12.19
2019-04-07T08:41:23.444Z,12.23
2019-04-07T08:42:22.729Z,12.46
2019-04-07T08:43:23.588Z,12.26
2019-04-07T08:44:25.985Z,12.09
2019-04-07T08:45:23.104Z,12.13
2019-04-07T08:46:22.643Z,12.24
2019-04-07T08:47:23.514Z,12.24
2019-04-07T08:48:22.593Z,12.37
2019-04-07T08:49:24.032Z,12.20
2019-04-07T08:50:22.813Z,12.11
2019-04-07T08:51:22.526Z,11.99
2019-04-07T08:52:22.501Z,12.11
2019-04-07T08:53:22.912Z,12.23
2019-04-07T08:54:23.118Z,12.01
2019-04-07T08:55:22.576Z,12.09
2019-04-07T08:56:24.271Z,12.20
2019-04-07T08:57:22.592Z,12.21
2019-04-07T08:58:25.748Z,12.41
2019-04-07T08:59:22.340Z,12.52
2019-04-07T09:00:22.317Z,12.45
2019-04-07T09:01:22.295Z,12.49
2019-04-07T09:02:25.434Z,12.39
2019-04-07T09:03:22.250Z,12.48
2019-04-07T09:04:22.312Z,12.54
2019-04-07T09:05:26.847Z,12.56
2019-04-07T09:06:23.134Z,12.64
2019-04-07T09:07:24.277Z,12.78
2019-04-07T09:08:22.709Z,12.84
2019-04-07T09:09:32.650Z,12.79
2019-04-07T09:10:22.089Z,12.66
2019-04-07T09:11:23.524Z,12.54
2019-04-07T09:12:22.910Z,12.57
2019-04-07T09:13:22.473Z,12.49
2019-04-07T09:14:22.292Z,12.46
2019-04-07T09:15:22.458Z,12.46
2019-04-07T09:16:22.490Z,12.60
2019-04-07T09:17:30.705Z,12.82
2019-04-07T09:18:21.905Z,12.97
2019-04-07T09:19:22.631Z,12.78
2019-04-07T09:20:21.858Z,12.70
2019-04-07T09:21:34.222Z,12.70
2019-04-07T09:22:23.184Z,12.54
2019-04-07T09:23:25.249Z,12.48
2019-04-07T09:24:22.273Z,12.31
2019-04-07T09:25:22.547Z,12.02
2019-04-07T09:26:22.702Z,12.15
2019-04-07T09:27:23.479Z,12.37
2019-04-07T09:28:23.937Z,12.57
2019-04-07T09:29:24.965Z,12.74
2019-04-07T09:30:22.295Z,13.02
2019-04-07T09:31:22.023Z,13.14
2019-04-07T09:32:21.584Z,13.06
2019-04-07T09:33:21.627Z,12.82
2019-04-07T09:34:22.258Z,12.84
2019-04-07T09:35:24.054Z,12.69
2019-04-07T09:36:22.291Z,12.49
2019-04-07T09:37:23.241Z,12.51
2019-04-07T09:38:24.971Z,12.48
2019-04-07T09:39:21.425Z,12.52
2019-04-07T09:40:21.499Z,12.52
2019-04-07T09:41:24.907Z,12.64
2019-04-07T09:42:24.423Z,12.62
2019-04-07T09:43:21.346Z,12.60
2019-04-07T09:44:22.022Z,12.63
2019-04-07T09:45:23.981Z,12.70
2019-04-07T09:46:21.266Z,12.57
2019-04-07T09:47:21.491Z,12.38
2019-04-07T09:48:22.903Z,12.27
2019-04-07T09:49:22.728Z,12.15
2019-04-07T09:50:21.828Z,12.11
2019-04-07T09:51:21.904Z,12.37
2019-04-07T09:52:21.131Z,12.57
2019-04-07T09:53:21.499Z,12.95
2019-04-07T09:54:23.120Z,13.14
2019-04-07T09:55:24.344Z,13.04
2019-04-07T09:56:21.654Z,13.00
2019-04-07T09:57:21.224Z,13.21
2019-04-07T09:58:21.392Z,12.97
2019-04-07T09:59:20.976Z,13.18
2019-04-07T10:00:22.885Z,13.56
2019-04-07T10:01:21.123Z,13.88
2019-04-07T10:02:20.908Z,14.07
2019-04-07T10:03:20.887Z,13.96
2019-04-07T10:04:20.869Z,13.61
2019-04-07T10:05:20.844Z,13.51
2019-04-07T10:06:20.824Z,13.58
2019-04-07T10:07:21.551Z,13.77
2019-04-07T10:08:20.922Z,13.98
2019-04-07T10:09:20.758Z,13.98
2019-04-07T10:10:21.385Z,14.20
2019-04-07T10:11:20.922Z,14.06
2019-04-07T10:12:20.695Z,13.79
2019-04-07T10:13:21.525Z,13.63
2019-04-07T10:14:20.706Z,13.74
2019-04-07T10:15:20.631Z,13.87
2019-04-07T10:16:21.178Z,13.69
2019-04-07T10:17:21.026Z,13.61
2019-04-07T10:18:20.572Z,13.12
2019-04-07T10:19:21.107Z,13.04
2019-04-07T10:20:22.345Z,13.03
2019-04-07T10:21:20.684Z,13.07
2019-04-07T10:22:21.191Z,13.06
2019-04-07T10:23:20.802Z,13.02
2019-04-07T10:24:20.444Z,13.03
2019-04-07T10:25:21.050Z,13.07
2019-04-07T10:26:20.419Z,13.17
2019-04-07T10:27:20.499Z,13.44
2019-04-07T10:28:20.443Z,13.63
2019-04-07T10:29:20.559Z,13.76
2019-04-07T10:30:21.054Z,13.83
2019-04-07T10:31:20.890Z,13.88
2019-04-07T10:32:23.029Z,13.63
2019-04-07T10:33:20.255Z,13.47
2019-04-07T10:34:20.232Z,13.29
2019-04-07T10:35:20.211Z,13.24
2019-04-07T10:36:20.631Z,13.12
2019-04-07T10:37:20.903Z,12.99
2019-04-07T10:38:20.146Z,13.09
2019-04-07T10:39:20.881Z,13.12
2019-04-07T10:40:22.144Z,13.12
2019-04-07T10:41:20.745Z,12.93
2019-04-07T10:42:20.183Z,12.57
2019-04-07T10:43:20.040Z,12.54
2019-04-07T10:44:20.020Z,12.52
2019-04-07T10:45:20.686Z,12.60
2019-04-07T10:46:20.379Z,12.60
2019-04-07T10:47:21.049Z,12.39
2019-04-07T10:48:20.213Z,12.52
2019-04-07T10:49:21.247Z,12.57
2019-04-07T10:50:20.084Z,12.52
2019-04-07T10:51:19.868Z,12.70
2019-04-07T10:52:19.845Z,12.66
2019-04-07T10:53:20.585Z,12.67
2019-04-07T10:54:19.963Z,12.66
2019-04-07T10:55:20.585Z,12.60
2019-04-07T10:56:19.960Z,12.57
2019-04-07T10:57:19.934Z,12.51
2019-04-07T10:58:19.886Z,12.63
2019-04-07T10:59:19.973Z,12.64
2019-04-07T11:00:20.244Z,12.81
2019-04-07T11:01:19.647Z,12.89
2019-04-07T11:02:19.623Z,12.92
2019-04-07T11:03:19.753Z,12.77
2019-04-07T11:04:19.583Z,12.97
2019-04-07T11:05:19.559Z,13.18
2019-04-07T11:06:19.538Z,13.61
2019-04-07T11:07:19.514Z,13.52
2019-04-07T11:08:20.205Z,13.41
2019-04-07T11:09:19.471Z,13.29
2019-04-07T11:10:30.672Z,13.07
2019-04-07T11:11:20.255Z,13.09
2019-04-07T11:12:19.899Z,12.97
2019-04-07T11:13:19.386Z,12.82
2019-04-07T11:14:19.361Z,12.82
2019-04-07T11:15:20.273Z,12.67
2019-04-07T11:16:19.319Z,12.84
2019-04-07T11:17:19.425Z,12.81
2019-04-07T11:18:19.274Z,12.93
2019-04-07T11:19:19.253Z,12.99
2019-04-07T11:20:19.397Z,13.06
2019-04-07T11:21:19.210Z,13.12
2019-04-07T11:22:19.874Z,13.22
2019-04-07T11:23:19.166Z,13.06
2019-04-07T11:24:19.669Z,13.14
2019-04-07T11:25:19.122Z,12.99
2019-04-07T11:26:19.099Z,12.93
2019-04-07T11:27:19.170Z,12.99
2019-04-07T11:28:19.658Z,12.82
2019-04-07T11:29:19.384Z,13.02
2019-04-07T11:30:19.014Z,13.11
2019-04-07T11:31:19.638Z,13.03
2019-04-07T11:32:24.178Z,12.99
2019-04-07T11:33:19.307Z,13.17
2019-04-07T11:34:19.407Z,13.21
2019-04-07T11:35:18.903Z,13.38
2019-04-07T11:36:21.561Z,13.47
2019-04-07T11:37:19.005Z,13.20
2019-04-07T11:38:19.089Z,13.14
2019-04-07T11:39:19.020Z,13.12
2019-04-07T11:40:19.221Z,12.97
2019-04-07T11:41:21.675Z,12.99
2019-04-07T11:42:19.639Z,12.99
2019-04-07T11:43:19.505Z,13.29
2019-04-07T11:44:20.128Z,13.18
2019-04-07T11:45:19.384Z,13.12
2019-04-07T11:46:18.872Z,13.24
2019-04-07T11:47:18.650Z,13.07
2019-04-07T11:48:18.623Z,12.99
2019-04-07T11:49:19.503Z,12.93
2019-04-07T11:50:18.896Z,13.04
2019-04-07T11:51:18.565Z,13.27
2019-04-07T11:52:18.537Z,13.51
2019-04-07T11:53:18.515Z,13.29
2019-04-07T11:54:18.492Z,13.37
2019-04-07T11:55:18.501Z,13.46
2019-04-07T11:56:18.450Z,13.24
2019-04-07T11:57:18.431Z,13.02
2019-04-07T11:58:25.527Z,13.06
2019-04-07T11:59:18.386Z,12.99
2019-04-07T12:00:18.459Z,12.93
2019-04-07T12:01:18.786Z,12.89
2019-04-07T12:02:19.792Z,12.74
2019-04-07T12:03:18.304Z,12.85
2019-04-07T12:04:18.530Z,12.99
2019-04-07T12:05:18.367Z,12.92
2019-04-07T12:06:19.093Z,13.12
2019-04-07T12:07:20.331Z,13.37
2019-04-07T12:08:18.194Z,13.24
2019-04-07T12:09:18.173Z,13.36
2019-04-07T12:10:18.147Z,13.55
2019-04-07T12:11:18.131Z,13.56
2019-04-07T12:12:18.250Z,13.56
2019-04-07T12:13:18.082Z,13.36
2019-04-07T12:14:18.139Z,13.22
2019-04-07T12:15:22.068Z,12.97
2019-04-07T12:16:18.531Z,12.81
2019-04-07T12:17:18.773Z,13.02
2019-04-07T12:18:19.238Z,13.17
2019-04-07T12:19:20.385Z,13.02
2019-04-07T12:20:17.933Z,12.97
2019-04-07T12:21:22.628Z,13.00
2019-04-07T12:22:18.312Z,13.06
2019-04-07T12:23:22.876Z,12.99
2019-04-07T12:24:18.837Z,13.17
2019-04-07T12:25:17.826Z,12.93
2019-04-07T12:26:18.050Z,13.12
2019-04-07T12:27:20.359Z,13.17
2019-04-07T12:28:19.150Z,13.02
2019-04-07T12:29:17.900Z,13.02
2019-04-07T12:30:18.548Z,13.17
2019-04-07T12:31:18.502Z,13.03
2019-04-07T12:32:18.137Z,13.15
2019-04-07T12:33:17.915Z,13.20
2019-04-07T12:34:17.865Z,13.18
2019-04-07T12:35:19.276Z,13.12
2019-04-07T12:36:18.499Z,13.12
2019-04-07T12:37:18.794Z,13.21
2019-04-07T12:38:17.652Z,13.17
2019-04-07T12:39:18.954Z,13.24
2019-04-07T12:40:20.825Z,13.15
2019-04-07T12:41:21.690Z,13.18
2019-04-07T12:42:17.849Z,13.43
2019-04-07T12:43:17.455Z,13.12
2019-04-07T12:44:17.417Z,13.11
2019-04-07T12:45:18.024Z,13.15
2019-04-07T12:46:17.737Z,13.12
2019-04-07T12:47:18.114Z,13.07
2019-04-07T12:48:19.481Z,13.20
2019-04-07T12:49:17.319Z,13.32
2019-04-07T12:50:18.852Z,13.41
2019-04-07T12:51:19.367Z,13.79
2019-04-07T12:52:17.401Z,13.74
2019-04-07T12:53:17.226Z,13.74
2019-04-07T12:54:17.914Z,13.70
2019-04-07T12:55:18.094Z,13.55
2019-04-07T12:56:17.982Z,13.59
2019-04-07T12:57:17.137Z,13.81
2019-04-07T12:58:17.114Z,13.94
2019-04-07T12:59:18.275Z,14.16
2019-04-07T13:00:19.169Z,14.07
2019-04-07T13:01:19.728Z,14.10
2019-04-07T13:02:19.167Z,14.24
2019-04-07T13:03:17.944Z,14.07
2019-04-07T13:04:17.664Z,13.94
2019-04-07T13:05:17.520Z,13.74